sensor_id;sensor_type;location;lat;lon;timestamp;P1;durP1;ratioP1;P2;durP2;ratioP2
43793;SDS011;29414;44.798;20.366;2022-07-23T00:01:35;11.43;;;4.95;;
43793;SDS011;29414;44.798;20.366;2022-07-23T00:05:35;10.25;;;6.50;;
43793;SDS011;29414;44.798;20.366;2022-07-23T00:09:36;12.13;;;5.75;;
43793;SDS011;29414;44.798;20.366;2022-07-23T00:13:36;11.65;;;5.43;;
43793;SDS011;29414;44.798;20.366;2022-07-23T00:17:36;10.68;;;4.03;;
43793;SDS011;29414;44.798;20.366;2022-07-23T00:21:37;6.90;;;4.53;;
43793;SDS011;29414;44.798;20.366;2022-07-23T00:25:37;8.25;;;6.13;;
43793;SDS011;29414;44.798;20.366;2022-07-23T00:29:37;9.48;;;5.97;;
43793;SDS011;29414;44.798;20.366;2022-07-23T00:33:37;11.10;;;8.82;;
43793;SDS011;29414;44.798;20.366;2022-07-23T00:37:38;11.57;;;7.28;;
43793;SDS011;29414;44.798;20.366;2022-07-23T00:41:38;15.05;;;8.07;;
43793;SDS011;29414;44.798;20.366;2022-07-23T00:45:38;17.40;;;9.02;;
43793;SDS011;29414;44.798;20.366;2022-07-23T00:49:39;12.27;;;6.88;;
43793;SDS011;29414;44.798;20.366;2022-07-23T00:53:39;15.88;;;7.25;;
43793;SDS011;29414;44.798;20.366;2022-07-23T00:57:40;11.55;;;6.25;;
43793;SDS011;29414;44.798;20.366;2022-07-23T01:01:41;12.45;;;6.60;;
43793;SDS011;29414;44.798;20.366;2022-07-23T01:05:41;10.15;;;7.00;;
43793;SDS011;29414;44.798;20.366;2022-07-23T01:09:42;7.07;;;6.03;;
43793;SDS011;29414;44.798;20.366;2022-07-23T01:13:42;6.60;;;5.20;;
43793;SDS011;29414;44.798;20.366;2022-07-23T01:17:42;14.52;;;7.43;;
43793;SDS011;29414;44.798;20.366;2022-07-23T01:21:46;17.48;;;7.53;;
43793;SDS011;29414;44.798;20.366;2022-07-23T01:25:48;9.82;;;5.60;;
43793;SDS011;29414;44.798;20.366;2022-07-23T01:29:48;7.10;;;4.60;;
43793;SDS011;29414;44.798;20.366;2022-07-23T01:33:48;10.30;;;4.65;;
43793;SDS011;29414;44.798;20.366;2022-07-23T01:37:49;7.00;;;4.75;;
43793;SDS011;29414;44.798;20.366;2022-07-23T01:41:49;7.13;;;4.20;;
43793;SDS011;29414;44.798;20.366;2022-07-23T01:45:49;4.78;;;3.13;;
43793;SDS011;29414;44.798;20.366;2022-07-23T01:49:49;6.07;;;3.55;;
43793;SDS011;29414;44.798;20.366;2022-07-23T01:53:50;8.45;;;3.55;;
43793;SDS011;29414;44.798;20.366;2022-07-23T01:57:50;9.35;;;3.70;;
43793;SDS011;29414;44.798;20.366;2022-07-23T02:01:50;5.10;;;3.78;;
43793;SDS011;29414;44.798;20.366;2022-07-23T02:05:51;6.63;;;3.42;;
43793;SDS011;29414;44.798;20.366;2022-07-23T02:09:51;3.42;;;3.13;;
43793;SDS011;29414;44.798;20.366;2022-07-23T02:13:52;8.20;;;4.00;;
43793;SDS011;29414;44.798;20.366;2022-07-23T02:17:52;4.85;;;3.35;;
43793;SDS011;29414;44.798;20.366;2022-07-23T02:21:52;7.65;;;3.60;;
43793;SDS011;29414;44.798;20.366;2022-07-23T02:25:54;7.90;;;3.80;;
43793;SDS011;29414;44.798;20.366;2022-07-23T02:29:54;7.90;;;4.45;;
43793;SDS011;29414;44.798;20.366;2022-07-23T02:33:55;6.60;;;4.03;;
43793;SDS011;29414;44.798;20.366;2022-07-23T02:37:55;8.27;;;4.60;;
43793;SDS011;29414;44.798;20.366;2022-07-23T02:41:55;10.65;;;5.13;;
43793;SDS011;29414;44.798;20.366;2022-07-23T02:45:56;7.53;;;5.32;;
43793;SDS011;29414;44.798;20.366;2022-07-23T02:49:56;14.85;;;6.05;;
43793;SDS011;29414;44.798;20.366;2022-07-23T02:53:56;13.77;;;6.57;;
43793;SDS011;29414;44.798;20.366;2022-07-23T02:57:57;6.95;;;5.40;;
43793;SDS011;29414;44.798;20.366;2022-07-23T03:01:57;9.35;;;5.72;;
43793;SDS011;29414;44.798;20.366;2022-07-23T03:05:57;9.13;;;5.88;;
43793;SDS011;29414;44.798;20.366;2022-07-23T03:09:57;7.25;;;5.50;;
43793;SDS011;29414;44.798;20.366;2022-07-23T03:13:58;13.48;;;6.65;;
43793;SDS011;29414;44.798;20.366;2022-07-23T03:17:58;9.30;;;5.47;;
43793;SDS011;29414;44.798;20.366;2022-07-23T03:21:58;7.47;;;5.10;;
43793;SDS011;29414;44.798;20.366;2022-07-23T03:25:59;11.43;;;5.13;;
43793;SDS011;29414;44.798;20.366;2022-07-23T03:29:59;9.60;;;5.05;;
43793;SDS011;29414;44.798;20.366;2022-07-23T03:33:59;9.93;;;7.32;;
43793;SDS011;29414;44.798;20.366;2022-07-23T03:38:00;16.60;;;7.93;;
43793;SDS011;29414;44.798;20.366;2022-07-23T03:42:00;12.05;;;7.68;;
43793;SDS011;29414;44.798;20.366;2022-07-23T03:46:00;13.93;;;6.60;;
43793;SDS011;29414;44.798;20.366;2022-07-23T03:50:01;16.95;;;6.78;;
43793;SDS011;29414;44.798;20.366;2022-07-23T03:54:01;12.05;;;6.78;;
43793;SDS011;29414;44.798;20.366;2022-07-23T03:58:01;9.90;;;6.13;;
43793;SDS011;29414;44.798;20.366;2022-07-23T04:02:02;10.07;;;5.50;;
43793;SDS011;29414;44.798;20.366;2022-07-23T04:06:02;8.00;;;6.13;;
43793;SDS011;29414;44.798;20.366;2022-07-23T04:10:02;13.98;;;5.90;;
43793;SDS011;29414;44.798;20.366;2022-07-23T04:14:03;20.65;;;6.75;;
43793;SDS011;29414;44.798;20.366;2022-07-23T04:18:03;9.43;;;5.75;;
43793;SDS011;29414;44.798;20.366;2022-07-23T04:22:03;19.23;;;6.38;;
43793;SDS011;29414;44.798;20.366;2022-07-23T04:26:04;8.15;;;5.82;;
43793;SDS011;29414;44.798;20.366;2022-07-23T04:30:04;13.00;;;6.57;;
43793;SDS011;29414;44.798;20.366;2022-07-23T04:34:05;10.93;;;6.30;;
43793;SDS011;29414;44.798;20.366;2022-07-23T04:38:05;12.07;;;6.35;;
43793;SDS011;29414;44.798;20.366;2022-07-23T04:42:05;16.42;;;7.10;;
43793;SDS011;29414;44.798;20.366;2022-07-23T04:46:05;8.88;;;4.72;;
43793;SDS011;29414;44.798;20.366;2022-07-23T04:50:06;8.35;;;4.95;;
43793;SDS011;29414;44.798;20.366;2022-07-23T04:54:06;7.65;;;4.57;;
43793;SDS011;29414;44.798;20.366;2022-07-23T04:58:06;10.90;;;5.22;;
43793;SDS011;29414;44.798;20.366;2022-07-23T05:02:07;15.98;;;5.72;;
43793;SDS011;29414;44.798;20.366;2022-07-23T05:06:07;12.00;;;5.00;;
43793;SDS011;29414;44.798;20.366;2022-07-23T05:10:07;10.50;;;4.97;;
43793;SDS011;29414;44.798;20.366;2022-07-23T05:14:08;9.23;;;5.15;;
43793;SDS011;29414;44.798;20.366;2022-07-23T05:18:08;10.82;;;5.07;;
43793;SDS011;29414;44.798;20.366;2022-07-23T05:22:08;19.55;;;5.57;;
43793;SDS011;29414;44.798;20.366;2022-07-23T05:26:09;39.42;;;7.35;;
43793;SDS011;29414;44.798;20.366;2022-07-23T05:30:09;24.05;;;5.57;;
43793;SDS011;29414;44.798;20.366;2022-07-23T05:34:10;12.27;;;4.65;;
43793;SDS011;29414;44.798;20.366;2022-07-23T05:38:10;12.05;;;4.53;;
43793;SDS011;29414;44.798;20.366;2022-07-23T05:42:10;11.05;;;3.88;;
43793;SDS011;29414;44.798;20.366;2022-07-23T05:46:10;16.52;;;5.68;;
43793;SDS011;29414;44.798;20.366;2022-07-23T05:50:11;29.95;;;5.95;;
43793;SDS011;29414;44.798;20.366;2022-07-23T05:54:11;9.82;;;3.90;;
43793;SDS011;29414;44.798;20.366;2022-07-23T05:58:12;8.98;;;3.47;;
43793;SDS011;29414;44.798;20.366;2022-07-23T06:02:12;18.17;;;4.68;;
43793;SDS011;29414;44.798;20.366;2022-07-23T06:06:12;12.07;;;4.40;;
43793;SDS011;29414;44.798;20.366;2022-07-23T06:10:12;7.57;;;3.47;;
43793;SDS011;29414;44.798;20.366;2022-07-23T06:14:13;8.38;;;3.35;;
43793;SDS011;29414;44.798;20.366;2022-07-23T06:18:13;16.83;;;4.32;;
43793;SDS011;29414;44.798;20.366;2022-07-23T06:22:13;11.25;;;3.70;;
43793;SDS011;29414;44.798;20.366;2022-07-23T06:26:14;7.00;;;3.60;;
43793;SDS011;29414;44.798;20.366;2022-07-23T06:30:14;5.75;;;4.03;;
43793;SDS011;29414;44.798;20.366;2022-07-23T06:34:17;10.13;;;3.90;;
43793;SDS011;29414;44.798;20.366;2022-07-23T06:38:17;12.45;;;4.00;;
43793;SDS011;29414;44.798;20.366;2022-07-23T06:42:17;22.45;;;4.70;;
43793;SDS011;29414;44.798;20.366;2022-07-23T06:46:18;17.15;;;4.20;;
43793;SDS011;29414;44.798;20.366;2022-07-23T06:50:19;20.80;;;4.63;;
43793;SDS011;29414;44.798;20.366;2022-07-23T06:54:19;41.42;;;7.10;;
43793;SDS011;29414;44.798;20.366;2022-07-23T06:58:19;20.23;;;3.90;;
43793;SDS011;29414;44.798;20.366;2022-07-23T07:02:20;23.10;;;3.63;;
43793;SDS011;29414;44.798;20.366;2022-07-23T07:06:20;19.15;;;4.35;;
43793;SDS011;29414;44.798;20.366;2022-07-23T07:10:21;8.57;;;3.38;;
43793;SDS011;29414;44.798;20.366;2022-07-23T07:14:21;17.40;;;4.25;;
43793;SDS011;29414;44.798;20.366;2022-07-23T07:18:21;22.50;;;4.50;;
43793;SDS011;29414;44.798;20.366;2022-07-23T07:22:22;27.40;;;5.60;;
43793;SDS011;29414;44.798;20.366;2022-07-23T07:26:22;51.40;;;7.68;;
43793;SDS011;29414;44.798;20.366;2022-07-23T07:30:22;22.95;;;5.70;;
43793;SDS011;29414;44.798;20.366;2022-07-23T07:34:22;16.17;;;5.50;;
43793;SDS011;29414;44.798;20.366;2022-07-23T07:38:23;17.70;;;6.20;;
43793;SDS011;29414;44.798;20.366;2022-07-23T07:42:23;14.68;;;6.22;;
43793;SDS011;29414;44.798;20.366;2022-07-23T07:46:24;22.92;;;6.32;;
43793;SDS011;29414;44.798;20.366;2022-07-23T07:50:27;16.80;;;5.55;;
43793;SDS011;29414;44.798;20.366;2022-07-23T07:54:27;11.32;;;4.53;;
43793;SDS011;29414;44.798;20.366;2022-07-23T07:58:28;20.63;;;5.18;;
43793;SDS011;29414;44.798;20.366;2022-07-23T08:02:28;22.92;;;5.45;;
43793;SDS011;29414;44.798;20.366;2022-07-23T08:06:28;31.10;;;5.93;;
43793;SDS011;29414;44.798;20.366;2022-07-23T08:10:29;19.57;;;5.57;;
43793;SDS011;29414;44.798;20.366;2022-07-23T08:14:31;16.42;;;5.72;;
43793;SDS011;29414;44.798;20.366;2022-07-23T08:18:31;19.08;;;5.50;;
43793;SDS011;29414;44.798;20.366;2022-07-23T08:22:41;17.35;;;4.57;;
43793;SDS011;29414;44.798;20.366;2022-07-23T08:26:41;9.80;;;4.80;;
43793;SDS011;29414;44.798;20.366;2022-07-23T08:30:42;8.70;;;4.40;;
43793;SDS011;29414;44.798;20.366;2022-07-23T08:34:43;11.30;;;4.30;;
43793;SDS011;29414;44.798;20.366;2022-07-23T08:38:43;14.67;;;3.83;;
43793;SDS011;29414;44.798;20.366;2022-07-23T08:42:44;13.52;;;4.10;;
43793;SDS011;29414;44.798;20.366;2022-07-23T08:46:45;10.43;;;4.35;;
43793;SDS011;29414;44.798;20.366;2022-07-23T08:50:47;8.65;;;3.47;;
43793;SDS011;29414;44.798;20.366;2022-07-23T08:54:47;9.57;;;3.88;;
43793;SDS011;29414;44.798;20.366;2022-07-23T08:58:48;11.75;;;3.53;;
43793;SDS011;29414;44.798;20.366;2022-07-23T09:02:49;5.85;;;3.45;;
43793;SDS011;29414;44.798;20.366;2022-07-23T09:06:50;9.38;;;2.45;;
43793;SDS011;29414;44.798;20.366;2022-07-23T09:14:53;11.83;;;3.57;;
43793;SDS011;29414;44.798;20.366;2022-07-23T09:19:01;11.80;;;3.30;;
43793;SDS011;29414;44.798;20.366;2022-07-23T09:23:01;7.53;;;2.72;;
43793;SDS011;29414;44.798;20.366;2022-07-23T09:27:01;10.45;;;3.53;;
43793;SDS011;29414;44.798;20.366;2022-07-23T09:31:02;8.70;;;3.35;;
43793;SDS011;29414;44.798;20.366;2022-07-23T09:35:03;20.70;;;3.60;;
43793;SDS011;29414;44.798;20.366;2022-07-23T09:39:04;7.13;;;2.83;;
43793;SDS011;29414;44.798;20.366;2022-07-23T09:43:04;9.18;;;3.50;;
43793;SDS011;29414;44.798;20.366;2022-07-23T09:47:05;7.15;;;3.15;;
43793;SDS011;29414;44.798;20.366;2022-07-23T09:51:07;6.65;;;3.22;;
43793;SDS011;29414;44.798;20.366;2022-07-23T09:55:07;24.07;;;3.83;;
43793;SDS011;29414;44.798;20.366;2022-07-23T09:59:08;4.95;;;3.22;;
43793;SDS011;29414;44.798;20.366;2022-07-23T10:03:17;12.95;;;3.85;;
43793;SDS011;29414;44.798;20.366;2022-07-23T10:07:17;5.47;;;3.17;;
43793;SDS011;29414;44.798;20.366;2022-07-23T10:11:21;14.98;;;3.50;;
43793;SDS011;29414;44.798;20.366;2022-07-23T10:15:21;7.38;;;2.60;;
43793;SDS011;29414;44.798;20.366;2022-07-23T10:19:21;8.90;;;3.65;;
43793;SDS011;29414;44.798;20.366;2022-07-23T10:32:02;10.35;;;3.42;;
43793;SDS011;29414;44.798;20.366;2022-07-23T10:40:11;4.30;;;2.63;;
43793;SDS011;29414;44.798;20.366;2022-07-23T10:44:15;17.10;;;3.63;;
43793;SDS011;29414;44.798;20.366;2022-07-23T10:48:26;8.65;;;2.45;;
43793;SDS011;29414;44.798;20.366;2022-07-23T10:52:29;10.00;;;3.10;;
43793;SDS011;29414;44.798;20.366;2022-07-23T11:00:49;7.53;;;3.40;;
43793;SDS011;29414;44.798;20.366;2022-07-23T11:04:52;10.27;;;5.20;;
43793;SDS011;29414;44.798;20.366;2022-07-23T11:17:21;8.32;;;2.78;;
43793;SDS011;29414;44.798;20.366;2022-07-23T11:33:26;8.35;;;2.97;;
43793;SDS011;29414;44.798;20.366;2022-07-23T11:37:34;12.70;;;4.13;;
43793;SDS011;29414;44.798;20.366;2022-07-23T11:41:43;8.57;;;3.03;;
43793;SDS011;29414;44.798;20.366;2022-07-23T11:45:48;10.50;;;3.03;;
43793;SDS011;29414;44.798;20.366;2022-07-23T11:50:01;11.98;;;3.25;;
43793;SDS011;29414;44.798;20.366;2022-07-23T11:54:07;3.88;;;2.90;;
43793;SDS011;29414;44.798;20.366;2022-07-23T11:58:07;14.85;;;3.60;;
43793;SDS011;29414;44.798;20.366;2022-07-23T12:02:08;11.90;;;2.70;;
43793;SDS011;29414;44.798;20.366;2022-07-23T12:06:08;15.13;;;3.15;;
43793;SDS011;29414;44.798;20.366;2022-07-23T12:14:09;7.80;;;2.87;;
43793;SDS011;29414;44.798;20.366;2022-07-23T12:18:10;7.75;;;2.97;;
43793;SDS011;29414;44.798;20.366;2022-07-23T12:22:11;6.13;;;3.10;;
43793;SDS011;29414;44.798;20.366;2022-07-23T12:26:11;6.82;;;2.95;;
43793;SDS011;29414;44.798;20.366;2022-07-23T12:30:22;13.38;;;3.67;;
43793;SDS011;29414;44.798;20.366;2022-07-23T12:34:23;10.30;;;3.47;;
43793;SDS011;29414;44.798;20.366;2022-07-23T12:38:24;13.93;;;3.83;;
43793;SDS011;29414;44.798;20.366;2022-07-23T12:42:24;9.55;;;3.00;;
43793;SDS011;29414;44.798;20.366;2022-07-23T12:46:25;9.23;;;3.22;;
43793;SDS011;29414;44.798;20.366;2022-07-23T12:54:44;7.00;;;3.20;;
43793;SDS011;29414;44.798;20.366;2022-07-23T12:58:45;8.02;;;3.60;;
43793;SDS011;29414;44.798;20.366;2022-07-23T13:02:46;5.72;;;3.78;;
43793;SDS011;29414;44.798;20.366;2022-07-23T13:14:51;6.30;;;3.13;;
43793;SDS011;29414;44.798;20.366;2022-07-23T13:18:51;8.30;;;4.10;;
43793;SDS011;29414;44.798;20.366;2022-07-23T13:22:51;3.80;;;3.05;;
43793;SDS011;29414;44.798;20.366;2022-07-23T13:26:52;14.93;;;4.27;;
43793;SDS011;29414;44.798;20.366;2022-07-23T13:30:52;6.85;;;4.50;;
43793;SDS011;29414;44.798;20.366;2022-07-23T13:34:53;15.38;;;4.10;;
43793;SDS011;29414;44.798;20.366;2022-07-23T13:38:53;10.35;;;3.85;;
43793;SDS011;29414;44.798;20.366;2022-07-23T13:42:53;5.23;;;2.77;;
43793;SDS011;29414;44.798;20.366;2022-07-23T13:46:54;39.40;;;7.57;;
43793;SDS011;29414;44.798;20.366;2022-07-23T13:50:54;10.03;;;4.50;;
43793;SDS011;29414;44.798;20.366;2022-07-23T13:54:55;8.85;;;4.32;;
43793;SDS011;29414;44.798;20.366;2022-07-23T13:58:55;4.77;;;3.30;;
43793;SDS011;29414;44.798;20.366;2022-07-23T14:02:55;5.97;;;3.67;;
43793;SDS011;29414;44.798;20.366;2022-07-23T14:06:56;6.70;;;4.35;;
43793;SDS011;29414;44.798;20.366;2022-07-23T14:10:56;5.50;;;3.87;;
43793;SDS011;29414;44.798;20.366;2022-07-23T14:14:56;7.80;;;3.43;;
43793;SDS011;29414;44.798;20.366;2022-07-23T14:18:57;14.57;;;4.10;;
43793;SDS011;29414;44.798;20.366;2022-07-23T14:22:57;13.10;;;4.32;;
43793;SDS011;29414;44.798;20.366;2022-07-23T14:27:00;7.75;;;4.07;;
43793;SDS011;29414;44.798;20.366;2022-07-23T14:31:01;4.07;;;3.08;;
43793;SDS011;29414;44.798;20.366;2022-07-23T14:35:02;5.70;;;3.60;;
43793;SDS011;29414;44.798;20.366;2022-07-23T14:39:03;5.97;;;3.70;;
43793;SDS011;29414;44.798;20.366;2022-07-23T14:43:03;8.70;;;3.60;;
43793;SDS011;29414;44.798;20.366;2022-07-23T14:47:04;5.35;;;3.45;;
43793;SDS011;29414;44.798;20.366;2022-07-23T14:51:04;6.55;;;3.65;;
43793;SDS011;29414;44.798;20.366;2022-07-23T14:55:05;10.27;;;3.70;;
43793;SDS011;29414;44.798;20.366;2022-07-23T14:59:05;4.57;;;4.05;;
43793;SDS011;29414;44.798;20.366;2022-07-23T15:03:05;7.15;;;3.80;;
43793;SDS011;29414;44.798;20.366;2022-07-23T15:07:06;7.80;;;3.03;;
43793;SDS011;29414;44.798;20.366;2022-07-23T15:11:06;7.03;;;3.55;;
43793;SDS011;29414;44.798;20.366;2022-07-23T15:15:09;9.37;;;3.73;;
43793;SDS011;29414;44.798;20.366;2022-07-23T15:19:09;7.53;;;3.40;;
43793;SDS011;29414;44.798;20.366;2022-07-23T15:23:09;5.88;;;2.85;;
43793;SDS011;29414;44.798;20.366;2022-07-23T15:27:10;6.17;;;3.07;;
43793;SDS011;29414;44.798;20.366;2022-07-23T15:31:10;3.53;;;2.63;;
43793;SDS011;29414;44.798;20.366;2022-07-23T15:35:10;5.43;;;3.30;;
43793;SDS011;29414;44.798;20.366;2022-07-23T15:39:11;5.50;;;2.78;;
43793;SDS011;29414;44.798;20.366;2022-07-23T15:43:11;3.88;;;3.05;;
43793;SDS011;29414;44.798;20.366;2022-07-23T15:47:13;4.47;;;3.33;;
43793;SDS011;29414;44.798;20.366;2022-07-23T15:51:13;7.07;;;3.50;;
43793;SDS011;29414;44.798;20.366;2022-07-23T15:55:15;8.63;;;2.88;;
43793;SDS011;29414;44.798;20.366;2022-07-23T15:59:15;5.97;;;3.40;;
43793;SDS011;29414;44.798;20.366;2022-07-23T16:03:16;8.37;;;2.90;;
43793;SDS011;29414;44.798;20.366;2022-07-23T16:07:16;11.37;;;3.93;;
43793;SDS011;29414;44.798;20.366;2022-07-23T16:11:17;8.10;;;3.38;;
43793;SDS011;29414;44.798;20.366;2022-07-23T16:15:17;3.95;;;3.25;;
43793;SDS011;29414;44.798;20.366;2022-07-23T16:19:18;6.25;;;3.08;;
43793;SDS011;29414;44.798;20.366;2022-07-23T16:23:18;28.60;;;5.18;;
43793;SDS011;29414;44.798;20.366;2022-07-23T16:27:19;23.80;;;4.28;;
43793;SDS011;29414;44.798;20.366;2022-07-23T16:31:19;7.00;;;3.50;;
43793;SDS011;29414;44.798;20.366;2022-07-23T16:35:19;9.70;;;3.30;;
43793;SDS011;29414;44.798;20.366;2022-07-23T16:39:19;6.33;;;3.13;;
43793;SDS011;29414;44.798;20.366;2022-07-23T16:43:20;3.65;;;2.78;;
43793;SDS011;29414;44.798;20.366;2022-07-23T16:47:20;3.08;;;2.85;;
43793;SDS011;29414;44.798;20.366;2022-07-23T16:51:21;3.40;;;2.67;;
43793;SDS011;29414;44.798;20.366;2022-07-23T16:55:21;8.63;;;3.90;;
43793;SDS011;29414;44.798;20.366;2022-07-23T16:59:21;4.40;;;3.45;;
43793;SDS011;29414;44.798;20.366;2022-07-23T17:03:21;6.43;;;3.28;;
43793;SDS011;29414;44.798;20.366;2022-07-23T17:07:23;5.45;;;3.17;;
43793;SDS011;29414;44.798;20.366;2022-07-23T17:11:24;12.77;;;3.97;;
43793;SDS011;29414;44.798;20.366;2022-07-23T17:15:24;9.32;;;3.90;;
43793;SDS011;29414;44.798;20.366;2022-07-23T17:19:24;15.32;;;3.70;;
43793;SDS011;29414;44.798;20.366;2022-07-23T17:23:25;8.83;;;3.33;;
43793;SDS011;29414;44.798;20.366;2022-07-23T17:27:25;6.40;;;3.80;;
43793;SDS011;29414;44.798;20.366;2022-07-23T17:31:25;4.65;;;3.40;;
43793;SDS011;29414;44.798;20.366;2022-07-23T17:35:26;4.63;;;3.97;;
43793;SDS011;29414;44.798;20.366;2022-07-23T17:39:26;10.40;;;4.68;;
43793;SDS011;29414;44.798;20.366;2022-07-23T17:43:27;8.48;;;4.25;;
43793;SDS011;29414;44.798;20.366;2022-07-23T17:47:27;5.47;;;3.83;;
43793;SDS011;29414;44.798;20.366;2022-07-23T17:51:28;7.15;;;4.25;;
43793;SDS011;29414;44.798;20.366;2022-07-23T17:55:28;5.35;;;4.95;;
43793;SDS011;29414;44.798;20.366;2022-07-23T17:59:28;6.50;;;4.65;;
43793;SDS011;29414;44.798;20.366;2022-07-23T18:03:29;7.88;;;4.97;;
43793;SDS011;29414;44.798;20.366;2022-07-23T18:07:30;11.70;;;5.75;;
43793;SDS011;29414;44.798;20.366;2022-07-23T18:11:30;7.45;;;5.10;;
43793;SDS011;29414;44.798;20.366;2022-07-23T18:15:31;19.25;;;6.15;;
43793;SDS011;29414;44.798;20.366;2022-07-23T18:19:31;12.73;;;5.38;;
43793;SDS011;29414;44.798;20.366;2022-07-23T18:23:32;12.02;;;5.95;;
43793;SDS011;29414;44.798;20.366;2022-07-23T18:27:33;8.65;;;5.15;;
43793;SDS011;29414;44.798;20.366;2022-07-23T18:31:34;7.72;;;5.60;;
43793;SDS011;29414;44.798;20.366;2022-07-23T18:35:34;12.47;;;9.43;;
43793;SDS011;29414;44.798;20.366;2022-07-23T18:39:37;14.23;;;6.82;;
43793;SDS011;29414;44.798;20.366;2022-07-23T18:43:37;7.83;;;6.33;;
43793;SDS011;29414;44.798;20.366;2022-07-23T18:47:38;9.73;;;7.10;;
43793;SDS011;29414;44.798;20.366;2022-07-23T18:51:38;21.20;;;10.52;;
43793;SDS011;29414;44.798;20.366;2022-07-23T18:55:39;20.17;;;9.13;;
43793;SDS011;29414;44.798;20.366;2022-07-23T18:59:39;30.73;;;10.68;;
43793;SDS011;29414;44.798;20.366;2022-07-23T19:03:39;29.53;;;10.50;;
43793;SDS011;29414;44.798;20.366;2022-07-23T19:07:39;22.58;;;8.52;;
43793;SDS011;29414;44.798;20.366;2022-07-23T19:11:40;22.33;;;9.18;;
43793;SDS011;29414;44.798;20.366;2022-07-23T19:15:40;21.08;;;8.50;;
43793;SDS011;29414;44.798;20.366;2022-07-23T19:19:40;18.88;;;8.45;;
43793;SDS011;29414;44.798;20.366;2022-07-23T19:23:41;14.53;;;8.77;;
43793;SDS011;29414;44.798;20.366;2022-07-23T19:27:41;25.88;;;11.63;;
43793;SDS011;29414;44.798;20.366;2022-07-23T19:31:41;42.88;;;15.30;;
43793;SDS011;29414;44.798;20.366;2022-07-23T19:35:42;13.98;;;7.40;;
43793;SDS011;29414;44.798;20.366;2022-07-23T19:39:42;16.67;;;6.53;;
43793;SDS011;29414;44.798;20.366;2022-07-23T19:43:43;14.75;;;6.82;;
43793;SDS011;29414;44.798;20.366;2022-07-23T19:47:43;21.55;;;7.75;;
43793;SDS011;29414;44.798;20.366;2022-07-23T19:51:44;11.30;;;6.75;;
43793;SDS011;29414;44.798;20.366;2022-07-23T19:55:45;14.68;;;7.40;;
43793;SDS011;29414;44.798;20.366;2022-07-23T19:59:45;18.33;;;6.97;;
43793;SDS011;29414;44.798;20.366;2022-07-23T20:03:45;11.30;;;4.95;;
43793;SDS011;29414;44.798;20.366;2022-07-23T20:07:45;25.27;;;19.97;;
43793;SDS011;29414;44.798;20.366;2022-07-23T20:11:46;18.15;;;10.27;;
43793;SDS011;29414;44.798;20.366;2022-07-23T20:15:46;16.63;;;9.27;;
43793;SDS011;29414;44.798;20.366;2022-07-23T20:19:47;31.08;;;16.55;;
43793;SDS011;29414;44.798;20.366;2022-07-23T20:23:48;18.10;;;12.10;;
43793;SDS011;29414;44.798;20.366;2022-07-23T20:27:48;14.95;;;11.38;;
43793;SDS011;29414;44.798;20.366;2022-07-23T20:31:49;21.42;;;11.15;;
43793;SDS011;29414;44.798;20.366;2022-07-23T20:35:50;18.90;;;10.05;;
43793;SDS011;29414;44.798;20.366;2022-07-23T20:39:50;18.17;;;14.07;;
43793;SDS011;29414;44.798;20.366;2022-07-23T20:43:51;23.98;;;16.40;;
43793;SDS011;29414;44.798;20.366;2022-07-23T20:47:51;25.77;;;15.68;;
43793;SDS011;29414;44.798;20.366;2022-07-23T20:51:52;22.08;;;15.70;;
43793;SDS011;29414;44.798;20.366;2022-07-23T20:55:53;20.95;;;11.20;;
43793;SDS011;29414;44.798;20.366;2022-07-23T20:59:55;14.00;;;8.25;;
43793;SDS011;29414;44.798;20.366;2022-07-23T21:03:55;12.25;;;7.65;;
43793;SDS011;29414;44.798;20.366;2022-07-23T21:07:56;13.35;;;10.10;;
43793;SDS011;29414;44.798;20.366;2022-07-23T21:11:56;17.75;;;11.10;;
43793;SDS011;29414;44.798;20.366;2022-07-23T21:15:57;30.98;;;18.13;;
43793;SDS011;29414;44.798;20.366;2022-07-23T21:19:57;26.60;;;16.23;;
43793;SDS011;29414;44.798;20.366;2022-07-23T21:23:57;23.80;;;14.40;;
43793;SDS011;29414;44.798;20.366;2022-07-23T21:27:58;25.38;;;14.48;;
43793;SDS011;29414;44.798;20.366;2022-07-23T21:31:58;33.53;;;14.95;;
43793;SDS011;29414;44.798;20.366;2022-07-23T21:35:59;22.20;;;15.18;;
43793;SDS011;29414;44.798;20.366;2022-07-23T21:39:59;29.08;;;13.05;;
43793;SDS011;29414;44.798;20.366;2022-07-23T21:43:59;37.78;;;15.98;;
43793;SDS011;29414;44.798;20.366;2022-07-23T21:48:00;18.75;;;12.68;;
43793;SDS011;29414;44.798;20.366;2022-07-23T21:52:00;24.60;;;14.23;;
43793;SDS011;29414;44.798;20.366;2022-07-23T21:56:00;15.23;;;12.50;;
43793;SDS011;29414;44.798;20.366;2022-07-23T22:00:00;12.32;;;10.18;;
43793;SDS011;29414;44.798;20.366;2022-07-23T22:04:01;18.02;;;8.85;;
43793;SDS011;29414;44.798;20.366;2022-07-23T22:08:04;21.40;;;11.05;;
43793;SDS011;29414;44.798;20.366;2022-07-23T22:12:05;17.65;;;10.52;;
43793;SDS011;29414;44.798;20.366;2022-07-23T22:16:05;18.38;;;10.98;;
43793;SDS011;29414;44.798;20.366;2022-07-23T22:20:05;17.50;;;11.32;;
43793;SDS011;29414;44.798;20.366;2022-07-23T22:24:06;12.88;;;9.82;;
43793;SDS011;29414;44.798;20.366;2022-07-23T22:28:06;12.40;;;8.25;;
43793;SDS011;29414;44.798;20.366;2022-07-23T22:32:07;15.57;;;7.15;;
43793;SDS011;29414;44.798;20.366;2022-07-23T22:36:07;12.45;;;8.43;;
43793;SDS011;29414;44.798;20.366;2022-07-23T22:40:07;12.27;;;7.70;;
43793;SDS011;29414;44.798;20.366;2022-07-23T22:44:08;11.43;;;8.48;;
43793;SDS011;29414;44.798;20.366;2022-07-23T22:48:08;10.68;;;7.07;;
43793;SDS011;29414;44.798;20.366;2022-07-23T22:52:09;11.55;;;6.88;;
43793;SDS011;29414;44.798;20.366;2022-07-23T22:56:09;12.45;;;8.23;;
43793;SDS011;29414;44.798;20.366;2022-07-23T23:00:09;18.65;;;8.95;;
43793;SDS011;29414;44.798;20.366;2022-07-23T23:04:10;16.90;;;10.35;;
43793;SDS011;29414;44.798;20.366;2022-07-23T23:08:10;14.40;;;9.35;;
43793;SDS011;29414;44.798;20.366;2022-07-23T23:12:10;18.35;;;11.18;;
43793;SDS011;29414;44.798;20.366;2022-07-23T23:16:11;14.40;;;12.20;;
43793;SDS011;29414;44.798;20.366;2022-07-23T23:20:11;11.07;;;9.73;;
43793;SDS011;29414;44.798;20.366;2022-07-23T23:24:11;16.23;;;11.02;;
43793;SDS011;29414;44.798;20.366;2022-07-23T23:28:11;14.95;;;10.63;;
43793;SDS011;29414;44.798;20.366;2022-07-23T23:32:12;18.75;;;10.73;;
43793;SDS011;29414;44.798;20.366;2022-07-23T23:36:12;23.30;;;11.48;;
43793;SDS011;29414;44.798;20.366;2022-07-23T23:40:12;14.77;;;9.05;;
43793;SDS011;29414;44.798;20.366;2022-07-23T23:44:13;18.67;;;10.23;;
43793;SDS011;29414;44.798;20.366;2022-07-23T23:48:16;16.93;;;9.77;;
43793;SDS011;29414;44.798;20.366;2022-07-23T23:52:17;9.73;;;8.35;;
43793;SDS011;29414;44.798;20.366;2022-07-23T23:56:17;17.83;;;12.05;;
